sensor_id;sensor_type;location;lat;lon;timestamp;temperature;humidity
48752;DHT22;34544;48.836;9.174;2024-01-30T00:01:26;2.20;99.90
48752;DHT22;34544;48.836;9.174;2024-01-30T00:03:52;2.20;99.90
48752;DHT22;34544;48.836;9.174;2024-01-30T00:06:20;2.20;99.90
48752;DHT22;34544;48.836;9.174;2024-01-30T00:08:47;2.20;99.90
48752;DHT22;34544;48.836;9.174;2024-01-30T00:11:14;2.10;99.90
48752;DHT22;34544;48.836;9.174;2024-01-30T00:13:40;2.10;99.90
48752;DHT22;34544;48.836;9.174;2024-01-30T00:16:06;2.20;99.90
48752;DHT22;34544;48.836;9.174;2024-01-30T00:18:32;2.10;99.90
48752;DHT22;34544;48.836;9.174;2024-01-30T00:20:58;2.10;99.90
48752;DHT22;34544;48.836;9.174;2024-01-30T00:23:23;2.10;99.90
48752;DHT22;34544;48.836;9.174;2024-01-30T00:25:50;2.00;99.90
48752;DHT22;34544;48.836;9.174;2024-01-30T00:28:16;2.10;99.90
48752;DHT22;34544;48.836;9.174;2024-01-30T00:30:41;2.10;99.90
48752;DHT22;34544;48.836;9.174;2024-01-30T00:33:08;2.10;99.90
48752;DHT22;34544;48.836;9.174;2024-01-30T00:35:35;2.10;99.90
48752;DHT22;34544;48.836;9.174;2024-01-30T00:38:00;2.10;99.90
48752;DHT22;34544;48.836;9.174;2024-01-30T00:40:26;2.10;99.90
48752;DHT22;34544;48.836;9.174;2024-01-30T00:42:52;2.10;99.90
48752;DHT22;34544;48.836;9.174;2024-01-30T00:45:18;2.20;99.90
48752;DHT22;34544;48.836;9.174;2024-01-30T00:47:44;2.10;99.90
48752;DHT22;34544;48.836;9.174;2024-01-30T00:50:10;2.20;99.90
48752;DHT22;34544;48.836;9.174;2024-01-30T00:52:36;2.10;99.90
48752;DHT22;34544;48.836;9.174;2024-01-30T00:55:02;2.20;99.90
48752;DHT22;34544;48.836;9.174;2024-01-30T00:57:28;2.10;99.90
48752;DHT22;34544;48.836;9.174;2024-01-30T00:59:54;2.10;99.90
48752;DHT22;34544;48.836;9.174;2024-01-30T01:02:20;2.00;99.90
48752;DHT22;34544;48.836;9.174;2024-01-30T01:04:46;2.10;99.90
48752;DHT22;34544;48.836;9.174;2024-01-30T01:07:11;2.10;99.90
48752;DHT22;34544;48.836;9.174;2024-01-30T01:09:37;2.10;99.90
48752;DHT22;34544;48.836;9.174;2024-01-30T01:12:03;2.10;99.90
48752;DHT22;34544;48.836;9.174;2024-01-30T01:14:29;2.10;99.90
48752;DHT22;34544;48.836;9.174;2024-01-30T01:16:55;2.00;99.90
48752;DHT22;34544;48.836;9.174;2024-01-30T01:19:20;2.10;99.90
48752;DHT22;34544;48.836;9.174;2024-01-30T01:21:46;2.10;99.90
48752;DHT22;34544;48.836;9.174;2024-01-30T01:24:12;2.00;99.90
48752;DHT22;34544;48.836;9.174;2024-01-30T01:26:38;2.00;99.90
48752;DHT22;34544;48.836;9.174;2024-01-30T01:29:03;2.00;99.90
48752;DHT22;34544;48.836;9.174;2024-01-30T01:31:38;2.00;99.90
48752;DHT22;34544;48.836;9.174;2024-01-30T01:34:12;2.00;99.90
48752;DHT22;34544;48.836;9.174;2024-01-30T01:36:39;2.00;99.90
48752;DHT22;34544;48.836;9.174;2024-01-30T01:39:04;2.00;99.90
48752;DHT22;34544;48.836;9.174;2024-01-30T01:41:31;1.90;99.90
48752;DHT22;34544;48.836;9.174;2024-01-30T01:43:57;1.90;99.90
48752;DHT22;34544;48.836;9.174;2024-01-30T01:46:23;1.80;99.90
48752;DHT22;34544;48.836;9.174;2024-01-30T01:48:49;1.90;99.90
48752;DHT22;34544;48.836;9.174;2024-01-30T01:51:15;1.80;99.90
48752;DHT22;34544;48.836;9.174;2024-01-30T01:53:41;1.80;99.90
48752;DHT22;34544;48.836;9.174;2024-01-30T01:56:08;1.80;99.90
48752;DHT22;34544;48.836;9.174;2024-01-30T01:58:34;1.70;99.90
48752;DHT22;34544;48.836;9.174;2024-01-30T02:01:00;1.70;99.90
48752;DHT22;34544;48.836;9.174;2024-01-30T02:03:27;1.70;99.90
48752;DHT22;34544;48.836;9.174;2024-01-30T02:05:53;1.70;99.90
48752;DHT22;34544;48.836;9.174;2024-01-30T02:08:20;1.70;99.90
48752;DHT22;34544;48.836;9.174;2024-01-30T02:10:46;1.60;99.90
48752;DHT22;34544;48.836;9.174;2024-01-30T02:13:11;1.60;99.90
48752;DHT22;34544;48.836;9.174;2024-01-30T02:15:37;1.60;99.90
48752;DHT22;34544;48.836;9.174;2024-01-30T02:18:03;1.50;99.90
48752;DHT22;34544;48.836;9.174;2024-01-30T02:20:30;1.60;99.90
48752;DHT22;34544;48.836;9.174;2024-01-30T02:22:58;1.50;99.90
48752;DHT22;34544;48.836;9.174;2024-01-30T02:25:38;1.50;99.90
48752;DHT22;34544;48.836;9.174;2024-01-30T02:28:12;1.50;99.90
48752;DHT22;34544;48.836;9.174;2024-01-30T02:30:39;1.50;99.90
48752;DHT22;34544;48.836;9.174;2024-01-30T02:33:05;1.50;99.90
48752;DHT22;34544;48.836;9.174;2024-01-30T02:35:30;1.40;99.90
48752;DHT22;34544;48.836;9.174;2024-01-30T02:37:56;1.50;99.90
48752;DHT22;34544;48.836;9.174;2024-01-30T02:40:22;1.40;99.90
48752;DHT22;34544;48.836;9.174;2024-01-30T02:42:47;1.40;99.90
48752;DHT22;34544;48.836;9.174;2024-01-30T02:45:13;1.40;99.90
48752;DHT22;34544;48.836;9.174;2024-01-30T02:47:39;1.40;99.90
48752;DHT22;34544;48.836;9.174;2024-01-30T02:50:05;1.40;99.90
48752;DHT22;34544;48.836;9.174;2024-01-30T02:52:32;1.40;99.90
48752;DHT22;34544;48.836;9.174;2024-01-30T02:54:58;1.30;99.90
48752;DHT22;34544;48.836;9.174;2024-01-30T02:57:24;1.40;99.90
48752;DHT22;34544;48.836;9.174;2024-01-30T02:59:50;1.30;99.90
48752;DHT22;34544;48.836;9.174;2024-01-30T03:02:15;1.30;99.90
48752;DHT22;34544;48.836;9.174;2024-01-30T03:04:42;1.30;99.90
48752;DHT22;34544;48.836;9.174;2024-01-30T03:07:08;1.20;99.90
48752;DHT22;34544;48.836;9.174;2024-01-30T03:09:34;1.20;99.90
48752;DHT22;34544;48.836;9.174;2024-01-30T03:12:00;1.20;99.90
48752;DHT22;34544;48.836;9.174;2024-01-30T03:14:26;1.30;99.90
48752;DHT22;34544;48.836;9.174;2024-01-30T03:16:51;1.20;99.90
48752;DHT22;34544;48.836;9.174;2024-01-30T03:19:17;1.20;99.90
48752;DHT22;34544;48.836;9.174;2024-01-30T03:21:44;1.20;99.90
48752;DHT22;34544;48.836;9.174;2024-01-30T03:24:09;1.20;99.90
48752;DHT22;34544;48.836;9.174;2024-01-30T03:26:35;1.20;99.90
48752;DHT22;34544;48.836;9.174;2024-01-30T03:29:01;1.20;99.90
48752;DHT22;34544;48.836;9.174;2024-01-30T03:31:27;1.20;99.90
48752;DHT22;34544;48.836;9.174;2024-01-30T03:33:52;1.20;99.90
48752;DHT22;34544;48.836;9.174;2024-01-30T03:36:18;1.20;99.90
48752;DHT22;34544;48.836;9.174;2024-01-30T03:38:44;1.20;99.90
48752;DHT22;34544;48.836;9.174;2024-01-30T03:41:10;1.20;99.90
48752;DHT22;34544;48.836;9.174;2024-01-30T03:43:36;1.20;99.90
48752;DHT22;34544;48.836;9.174;2024-01-30T03:46:02;1.20;99.90
48752;DHT22;34544;48.836;9.174;2024-01-30T03:48:29;1.10;99.90
48752;DHT22;34544;48.836;9.174;2024-01-30T03:50:54;1.00;99.90
48752;DHT22;34544;48.836;9.174;2024-01-30T03:53:20;1.10;99.90
48752;DHT22;34544;48.836;9.174;2024-01-30T03:55:46;1.10;99.90
48752;DHT22;34544;48.836;9.174;2024-01-30T03:58:11;1.00;99.90
48752;DHT22;34544;48.836;9.174;2024-01-30T04:00:37;1.00;99.90
48752;DHT22;34544;48.836;9.174;2024-01-30T04:39:45;0.90;99.90
48752;DHT22;34544;48.836;9.174;2024-01-30T04:42:11;0.80;99.90
48752;DHT22;34544;48.836;9.174;2024-01-30T04:44:36;0.80;99.90
48752;DHT22;34544;48.836;9.174;2024-01-30T04:47:02;0.90;99.90
48752;DHT22;34544;48.836;9.174;2024-01-30T04:49:29;0.80;99.90
48752;DHT22;34544;48.836;9.174;2024-01-30T04:51:54;0.80;99.90
48752;DHT22;34544;48.836;9.174;2024-01-30T04:54:21;0.80;99.90
48752;DHT22;34544;48.836;9.174;2024-01-30T04:56:46;0.80;99.90
48752;DHT22;34544;48.836;9.174;2024-01-30T04:59:12;0.70;99.90
48752;DHT22;34544;48.836;9.174;2024-01-30T05:01:38;0.70;99.90
48752;DHT22;34544;48.836;9.174;2024-01-30T05:04:04;0.70;99.90
48752;DHT22;34544;48.836;9.174;2024-01-30T05:06:32;0.70;99.90
48752;DHT22;34544;48.836;9.174;2024-01-30T05:08:58;0.70;99.90
48752;DHT22;34544;48.836;9.174;2024-01-30T05:11:24;0.80;99.90
48752;DHT22;34544;48.836;9.174;2024-01-30T05:13:50;0.80;99.90
48752;DHT22;34544;48.836;9.174;2024-01-30T05:16:16;0.80;99.90
48752;DHT22;34544;48.836;9.174;2024-01-30T05:18:42;0.90;99.90
48752;DHT22;34544;48.836;9.174;2024-01-30T05:21:07;0.80;99.90
48752;DHT22;34544;48.836;9.174;2024-01-30T05:23:33;0.90;99.90
48752;DHT22;34544;48.836;9.174;2024-01-30T05:25:59;0.80;99.90
48752;DHT22;34544;48.836;9.174;2024-01-30T05:28:26;0.90;99.90
48752;DHT22;34544;48.836;9.174;2024-01-30T05:30:52;0.90;99.90
48752;DHT22;34544;48.836;9.174;2024-01-30T05:33:17;0.90;99.90
48752;DHT22;34544;48.836;9.174;2024-01-30T05:35:43;0.90;99.90
48752;DHT22;34544;48.836;9.174;2024-01-30T05:38:09;0.90;99.90
48752;DHT22;34544;48.836;9.174;2024-01-30T05:40:35;0.90;99.90
48752;DHT22;34544;48.836;9.174;2024-01-30T05:43:01;0.90;99.90
48752;DHT22;34544;48.836;9.174;2024-01-30T05:45:28;0.90;99.90
48752;DHT22;34544;48.836;9.174;2024-01-30T05:47:53;1.00;99.90
48752;DHT22;34544;48.836;9.174;2024-01-30T05:50:19;1.10;99.90
48752;DHT22;34544;48.836;9.174;2024-01-30T05:52:45;1.10;99.90
48752;DHT22;34544;48.836;9.174;2024-01-30T05:55:12;1.10;99.90
48752;DHT22;34544;48.836;9.174;2024-01-30T05:57:38;1.10;99.90
48752;DHT22;34544;48.836;9.174;2024-01-30T06:00:05;1.10;99.90
48752;DHT22;34544;48.836;9.174;2024-01-30T06:02:32;1.10;99.90
48752;DHT22;34544;48.836;9.174;2024-01-30T06:04:58;1.20;99.90
48752;DHT22;34544;48.836;9.174;2024-01-30T06:07:23;1.20;99.90
48752;DHT22;34544;48.836;9.174;2024-01-30T06:09:49;1.20;99.90
48752;DHT22;34544;48.836;9.174;2024-01-30T06:12:15;1.10;99.90
48752;DHT22;34544;48.836;9.174;2024-01-30T06:14:40;1.20;99.90
48752;DHT22;34544;48.836;9.174;2024-01-30T06:17:08;1.10;99.90
48752;DHT22;34544;48.836;9.174;2024-01-30T06:19:34;1.20;99.90
48752;DHT22;34544;48.836;9.174;2024-01-30T06:22:00;1.20;99.90
48752;DHT22;34544;48.836;9.174;2024-01-30T06:24:26;1.10;99.90
48752;DHT22;34544;48.836;9.174;2024-01-30T06:26:53;1.20;99.90
48752;DHT22;34544;48.836;9.174;2024-01-30T06:29:19;1.20;99.90
48752;DHT22;34544;48.836;9.174;2024-01-30T06:31:44;1.20;99.90
48752;DHT22;34544;48.836;9.174;2024-01-30T06:34:10;1.20;99.90
48752;DHT22;34544;48.836;9.174;2024-01-30T06:36:38;1.20;99.90
48752;DHT22;34544;48.836;9.174;2024-01-30T06:39:04;1.20;99.90
48752;DHT22;34544;48.836;9.174;2024-01-30T06:41:30;1.20;99.90
48752;DHT22;34544;48.836;9.174;2024-01-30T06:43:56;1.10;99.90
48752;DHT22;34544;48.836;9.174;2024-01-30T06:46:21;1.10;99.90
48752;DHT22;34544;48.836;9.174;2024-01-30T06:48:47;1.10;99.90
48752;DHT22;34544;48.836;9.174;2024-01-30T06:51:13;1.20;99.90
48752;DHT22;34544;48.836;9.174;2024-01-30T06:53:38;1.10;99.90
48752;DHT22;34544;48.836;9.174;2024-01-30T06:56:05;1.10;99.90
48752;DHT22;34544;48.836;9.174;2024-01-30T06:58:31;1.20;99.90
48752;DHT22;34544;48.836;9.174;2024-01-30T07:00:57;1.10;99.90
48752;DHT22;34544;48.836;9.174;2024-01-30T07:03:23;1.20;99.90
48752;DHT22;34544;48.836;9.174;2024-01-30T07:05:49;1.30;99.90
48752;DHT22;34544;48.836;9.174;2024-01-30T07:08:15;1.30;99.90
48752;DHT22;34544;48.836;9.174;2024-01-30T07:10:43;1.30;99.90
48752;DHT22;34544;48.836;9.174;2024-01-30T07:13:09;1.30;99.90
48752;DHT22;34544;48.836;9.174;2024-01-30T07:15:35;1.40;99.90
48752;DHT22;34544;48.836;9.174;2024-01-30T07:18:03;1.40;99.90
48752;DHT22;34544;48.836;9.174;2024-01-30T07:20:28;1.50;99.90
48752;DHT22;34544;48.836;9.174;2024-01-30T07:22:56;1.50;99.90
48752;DHT22;34544;48.836;9.174;2024-01-30T07:25:22;1.60;99.90
48752;DHT22;34544;48.836;9.174;2024-01-30T07:27:52;1.60;99.90
48752;DHT22;34544;48.836;9.174;2024-01-30T07:30:18;1.60;99.90
48752;DHT22;34544;48.836;9.174;2024-01-30T07:32:44;1.70;99.90
48752;DHT22;34544;48.836;9.174;2024-01-30T07:35:09;1.70;99.90
48752;DHT22;34544;48.836;9.174;2024-01-30T07:37:35;1.70;99.90
48752;DHT22;34544;48.836;9.174;2024-01-30T07:40:01;1.80;99.90
48752;DHT22;34544;48.836;9.174;2024-01-30T07:42:28;1.90;99.90
48752;DHT22;34544;48.836;9.174;2024-01-30T07:44:53;2.00;99.90
48752;DHT22;34544;48.836;9.174;2024-01-30T07:47:19;2.00;99.90
48752;DHT22;34544;48.836;9.174;2024-01-30T07:49:44;2.10;99.90
48752;DHT22;34544;48.836;9.174;2024-01-30T07:52:10;2.20;99.90
48752;DHT22;34544;48.836;9.174;2024-01-30T07:54:36;2.40;99.90
48752;DHT22;34544;48.836;9.174;2024-01-30T07:57:04;2.50;99.90
48752;DHT22;34544;48.836;9.174;2024-01-30T07:59:30;2.60;99.90
48752;DHT22;34544;48.836;9.174;2024-01-30T08:01:55;2.70;99.90
48752;DHT22;34544;48.836;9.174;2024-01-30T08:04:21;2.80;99.90
48752;DHT22;34544;48.836;9.174;2024-01-30T08:06:47;2.80;99.90
48752;DHT22;34544;48.836;9.174;2024-01-30T08:09:12;3.00;99.90
48752;DHT22;34544;48.836;9.174;2024-01-30T08:11:38;3.20;99.90
48752;DHT22;34544;48.836;9.174;2024-01-30T08:14:04;3.50;99.90
48752;DHT22;34544;48.836;9.174;2024-01-30T08:16:29;3.70;99.90
48752;DHT22;34544;48.836;9.174;2024-01-30T08:18:55;4.00;99.90
48752;DHT22;34544;48.836;9.174;2024-01-30T08:21:23;4.30;99.90
48752;DHT22;34544;48.836;9.174;2024-01-30T08:23:49;4.60;99.90
48752;DHT22;34544;48.836;9.174;2024-01-30T08:26:14;4.80;99.90
48752;DHT22;34544;48.836;9.174;2024-01-30T08:28:40;5.10;99.90
48752;DHT22;34544;48.836;9.174;2024-01-30T08:31:06;5.20;99.90
48752;DHT22;34544;48.836;9.174;2024-01-30T08:33:31;5.60;99.90
48752;DHT22;34544;48.836;9.174;2024-01-30T08:35:57;6.00;99.90
48752;DHT22;34544;48.836;9.174;2024-01-30T08:40:49;6.60;99.90
48752;DHT22;34544;48.836;9.174;2024-01-30T08:43:14;6.90;99.90
48752;DHT22;34544;48.836;9.174;2024-01-30T08:45:41;7.20;99.90
48752;DHT22;34544;48.836;9.174;2024-01-30T08:48:07;7.50;99.90
48752;DHT22;34544;48.836;9.174;2024-01-30T08:50:33;7.50;99.90
48752;DHT22;34544;48.836;9.174;2024-01-30T08:53:00;7.80;99.90
48752;DHT22;34544;48.836;9.174;2024-01-30T08:55:25;8.00;99.90
48752;DHT22;34544;48.836;9.174;2024-01-30T08:57:51;8.10;99.90
48752;DHT22;34544;48.836;9.174;2024-01-30T09:00:17;8.30;99.90
48752;DHT22;34544;48.836;9.174;2024-01-30T09:02:43;8.40;99.90
48752;DHT22;34544;48.836;9.174;2024-01-30T09:05:09;8.40;99.90
48752;DHT22;34544;48.836;9.174;2024-01-30T09:07:35;8.50;99.90
48752;DHT22;34544;48.836;9.174;2024-01-30T09:10:00;8.60;99.90
48752;DHT22;34544;48.836;9.174;2024-01-30T09:12:26;8.70;99.90
48752;DHT22;34544;48.836;9.174;2024-01-30T09:14:52;8.80;99.90
48752;DHT22;34544;48.836;9.174;2024-01-30T09:17:18;8.90;99.90
48752;DHT22;34544;48.836;9.174;2024-01-30T09:19:46;8.90;99.90
48752;DHT22;34544;48.836;9.174;2024-01-30T09:22:11;9.00;99.90
48752;DHT22;34544;48.836;9.174;2024-01-30T09:24:37;9.10;99.90
48752;DHT22;34544;48.836;9.174;2024-01-30T09:27:02;9.30;99.90
48752;DHT22;34544;48.836;9.174;2024-01-30T09:29:28;9.40;99.90
48752;DHT22;34544;48.836;9.174;2024-01-30T09:31:54;9.40;99.90
48752;DHT22;34544;48.836;9.174;2024-01-30T09:34:19;9.70;99.90
48752;DHT22;34544;48.836;9.174;2024-01-30T09:36:45;9.90;99.90
48752;DHT22;34544;48.836;9.174;2024-01-30T09:39:11;10.00;99.90
48752;DHT22;34544;48.836;9.174;2024-01-30T09:41:48;10.30;99.90
48752;DHT22;34544;48.836;9.174;2024-01-30T09:44:16;10.50;99.90
48752;DHT22;34544;48.836;9.174;2024-01-30T09:46:42;10.70;99.90
48752;DHT22;34544;48.836;9.174;2024-01-30T09:49:09;10.70;99.90
48752;DHT22;34544;48.836;9.174;2024-01-30T09:51:35;10.70;99.90
48752;DHT22;34544;48.836;9.174;2024-01-30T09:54:02;10.70;99.90
48752;DHT22;34544;48.836;9.174;2024-01-30T09:56:28;10.70;99.90
48752;DHT22;34544;48.836;9.174;2024-01-30T09:58:54;10.70;99.90
48752;DHT22;34544;48.836;9.174;2024-01-30T10:01:20;10.80;99.90
48752;DHT22;34544;48.836;9.174;2024-01-30T10:03:46;10.90;99.90
48752;DHT22;34544;48.836;9.174;2024-01-30T10:06:12;11.00;99.90
48752;DHT22;34544;48.836;9.174;2024-01-30T10:08:37;11.20;99.90
48752;DHT22;34544;48.836;9.174;2024-01-30T10:11:03;11.50;99.90
48752;DHT22;34544;48.836;9.174;2024-01-30T10:13:29;11.80;99.90
48752;DHT22;34544;48.836;9.174;2024-01-30T10:15:55;11.90;99.90
48752;DHT22;34544;48.836;9.174;2024-01-30T10:18:24;11.90;99.90
48752;DHT22;34544;48.836;9.174;2024-01-30T10:20:51;11.90;99.90
48752;DHT22;34544;48.836;9.174;2024-01-30T10:23:17;11.80;99.90
48752;DHT22;34544;48.836;9.174;2024-01-30T10:25:44;11.60;99.90
48752;DHT22;34544;48.836;9.174;2024-01-30T10:28:10;11.50;99.90
48752;DHT22;34544;48.836;9.174;2024-01-30T10:30:36;11.50;99.90
48752;DHT22;34544;48.836;9.174;2024-01-30T10:33:02;11.50;99.90
48752;DHT22;34544;48.836;9.174;2024-01-30T10:35:28;11.50;99.90
48752;DHT22;34544;48.836;9.174;2024-01-30T10:37:57;11.40;99.90
48752;DHT22;34544;48.836;9.174;2024-01-30T10:40:27;11.40;99.90
48752;DHT22;34544;48.836;9.174;2024-01-30T10:42:55;11.30;99.90
48752;DHT22;34544;48.836;9.174;2024-01-30T10:45:22;11.40;99.90
48752;DHT22;34544;48.836;9.174;2024-01-30T10:47:53;11.40;99.90
48752;DHT22;34544;48.836;9.174;2024-01-30T10:50:20;11.30;99.90
48752;DHT22;34544;48.836;9.174;2024-01-30T10:52:46;11.30;99.90
48752;DHT22;34544;48.836;9.174;2024-01-30T10:55:13;11.30;99.90
48752;DHT22;34544;48.836;9.174;2024-01-30T10:57:40;11.30;99.90
48752;DHT22;34544;48.836;9.174;2024-01-30T11:00:11;11.30;99.90
48752;DHT22;34544;48.836;9.174;2024-01-30T11:02:40;11.30;99.90
48752;DHT22;34544;48.836;9.174;2024-01-30T11:05:06;11.40;99.90
48752;DHT22;34544;48.836;9.174;2024-01-30T11:07:32;11.50;99.90
48752;DHT22;34544;48.836;9.174;2024-01-30T11:12:24;11.60;99.90
48752;DHT22;34544;48.836;9.174;2024-01-30T11:15:12;11.70;99.90
48752;DHT22;34544;48.836;9.174;2024-01-30T11:17:51;11.70;99.90
48752;DHT22;34544;48.836;9.174;2024-01-30T11:20:35;11.70;99.90
48752;DHT22;34544;48.836;9.174;2024-01-30T11:23:02;11.80;99.90
48752;DHT22;34544;48.836;9.174;2024-01-30T11:25:32;11.80;99.90
48752;DHT22;34544;48.836;9.174;2024-01-30T11:27:58;11.80;99.90
48752;DHT22;34544;48.836;9.174;2024-01-30T11:30:25;11.90;99.90
48752;DHT22;34544;48.836;9.174;2024-01-30T11:33:10;11.90;99.90
48752;DHT22;34544;48.836;9.174;2024-01-30T11:35:44;11.90;99.90
48752;DHT22;34544;48.836;9.174;2024-01-30T11:38:12;12.00;99.90
48752;DHT22;34544;48.836;9.174;2024-01-30T11:40:39;11.90;99.90
48752;DHT22;34544;48.836;9.174;2024-01-30T11:43:07;11.90;99.90
48752;DHT22;34544;48.836;9.174;2024-01-30T11:45:33;11.70;99.90
48752;DHT22;34544;48.836;9.174;2024-01-30T11:48:00;11.70;99.90
48752;DHT22;34544;48.836;9.174;2024-01-30T11:50:27;11.80;99.90
48752;DHT22;34544;48.836;9.174;2024-01-30T11:52:54;11.90;99.90
48752;DHT22;34544;48.836;9.174;2024-01-30T11:55:21;12.00;99.90
48752;DHT22;34544;48.836;9.174;2024-01-30T11:57:47;12.00;99.90
48752;DHT22;34544;48.836;9.174;2024-01-30T12:00:17;12.10;99.90
48752;DHT22;34544;48.836;9.174;2024-01-30T12:02:48;12.00;99.90
48752;DHT22;34544;48.836;9.174;2024-01-30T12:05:14;12.00;99.90
48752;DHT22;34544;48.836;9.174;2024-01-30T12:07:40;12.00;99.90
48752;DHT22;34544;48.836;9.174;2024-01-30T12:10:09;12.00;99.90
48752;DHT22;34544;48.836;9.174;2024-01-30T12:12:35;12.00;99.90
48752;DHT22;34544;48.836;9.174;2024-01-30T12:15:01;12.00;99.90
48752;DHT22;34544;48.836;9.174;2024-01-30T12:17:29;12.00;99.90
48752;DHT22;34544;48.836;9.174;2024-01-30T12:20:08;12.00;99.90
48752;DHT22;34544;48.836;9.174;2024-01-30T12:22:45;12.10;99.90
48752;DHT22;34544;48.836;9.174;2024-01-30T12:25:20;12.20;99.90
48752;DHT22;34544;48.836;9.174;2024-01-30T12:27:52;12.20;99.90
48752;DHT22;34544;48.836;9.174;2024-01-30T12:30:19;12.30;99.90
48752;DHT22;34544;48.836;9.174;2024-01-30T12:32:46;12.40;99.90
48752;DHT22;34544;48.836;9.174;2024-01-30T12:35:15;12.50;99.90
48752;DHT22;34544;48.836;9.174;2024-01-30T12:37:46;12.50;99.90
48752;DHT22;34544;48.836;9.174;2024-01-30T12:40:14;12.50;99.90
48752;DHT22;34544;48.836;9.174;2024-01-30T12:42:40;12.60;99.90
48752;DHT22;34544;48.836;9.174;2024-01-30T12:45:08;12.70;99.90
48752;DHT22;34544;48.836;9.174;2024-01-30T12:47:34;12.90;99.90
48752;DHT22;34544;48.836;9.174;2024-01-30T12:50:00;13.00;99.90
48752;DHT22;34544;48.836;9.174;2024-01-30T12:52:26;13.30;99.90
48752;DHT22;34544;48.836;9.174;2024-01-30T12:54:52;13.60;99.90
48752;DHT22;34544;48.836;9.174;2024-01-30T12:57:18;13.90;99.90
48752;DHT22;34544;48.836;9.174;2024-01-30T12:59:45;14.20;99.90
48752;DHT22;34544;48.836;9.174;2024-01-30T13:02:11;14.60;99.90
48752;DHT22;34544;48.836;9.174;2024-01-30T13:04:37;14.90;99.90
48752;DHT22;34544;48.836;9.174;2024-01-30T13:07:03;15.30;99.90
48752;DHT22;34544;48.836;9.174;2024-01-30T13:09:30;15.50;99.90
48752;DHT22;34544;48.836;9.174;2024-01-30T13:11:57;15.80;99.90
48752;DHT22;34544;48.836;9.174;2024-01-30T13:14:24;16.10;99.90
48752;DHT22;34544;48.836;9.174;2024-01-30T13:16:49;16.30;99.90
48752;DHT22;34544;48.836;9.174;2024-01-30T13:19:16;16.70;99.90
48752;DHT22;34544;48.836;9.174;2024-01-30T13:21:45;17.30;99.90
48752;DHT22;34544;48.836;9.174;2024-01-30T13:24:13;18.00;99.90
48752;DHT22;34544;48.836;9.174;2024-01-30T13:26:42;18.60;98.60
48752;DHT22;34544;48.836;9.174;2024-01-30T13:29:08;18.70;98.20
48752;DHT22;34544;48.836;9.174;2024-01-30T13:31:34;18.50;98.50
48752;DHT22;34544;48.836;9.174;2024-01-30T13:34:00;18.20;99.00
48752;DHT22;34544;48.836;9.174;2024-01-30T13:36:26;17.80;99.20
48752;DHT22;34544;48.836;9.174;2024-01-30T13:38:51;17.40;99.90
48752;DHT22;34544;48.836;9.174;2024-01-30T13:41:17;17.00;99.50
48752;DHT22;34544;48.836;9.174;2024-01-30T13:43:44;16.60;99.90
48752;DHT22;34544;48.836;9.174;2024-01-30T13:46:10;16.40;99.90
48752;DHT22;34544;48.836;9.174;2024-01-30T13:48:36;16.30;99.90
48752;DHT22;34544;48.836;9.174;2024-01-30T13:51:02;16.20;99.90
48752;DHT22;34544;48.836;9.174;2024-01-30T13:53:27;16.10;99.90
48752;DHT22;34544;48.836;9.174;2024-01-30T13:55:53;16.00;99.90
48752;DHT22;34544;48.836;9.174;2024-01-30T13:58:19;15.80;99.90
48752;DHT22;34544;48.836;9.174;2024-01-30T14:00:44;15.50;99.90
48752;DHT22;34544;48.836;9.174;2024-01-30T14:03:10;15.30;99.90
48752;DHT22;34544;48.836;9.174;2024-01-30T14:05:36;15.10;99.90
48752;DHT22;34544;48.836;9.174;2024-01-30T14:08:01;15.00;99.90
48752;DHT22;34544;48.836;9.174;2024-01-30T14:10:27;14.80;99.90
48752;DHT22;34544;48.836;9.174;2024-01-30T14:12:52;14.70;99.90
48752;DHT22;34544;48.836;9.174;2024-01-30T14:15:18;14.50;99.90
48752;DHT22;34544;48.836;9.174;2024-01-30T14:17:45;14.30;99.90
48752;DHT22;34544;48.836;9.174;2024-01-30T14:20:11;14.20;99.90
48752;DHT22;34544;48.836;9.174;2024-01-30T14:22:36;14.10;99.90
48752;DHT22;34544;48.836;9.174;2024-01-30T14:25:02;13.90;99.90
48752;DHT22;34544;48.836;9.174;2024-01-30T14:27:31;13.80;99.90
48752;DHT22;34544;48.836;9.174;2024-01-30T14:29:57;13.70;99.90
48752;DHT22;34544;48.836;9.174;2024-01-30T14:32:24;13.60;99.90
48752;DHT22;34544;48.836;9.174;2024-01-30T14:34:50;13.50;99.90
48752;DHT22;34544;48.836;9.174;2024-01-30T14:37:16;13.40;99.90
48752;DHT22;34544;48.836;9.174;2024-01-30T14:39:42;13.30;99.90
48752;DHT22;34544;48.836;9.174;2024-01-30T14:42:08;13.20;99.90
48752;DHT22;34544;48.836;9.174;2024-01-30T14:44:34;13.00;99.90
48752;DHT22;34544;48.836;9.174;2024-01-30T14:47:00;12.90;99.90
48752;DHT22;34544;48.836;9.174;2024-01-30T14:49:26;12.80;99.90
48752;DHT22;34544;48.836;9.174;2024-01-30T14:51:51;12.60;99.90
48752;DHT22;34544;48.836;9.174;2024-01-30T14:54:17;12.50;99.90
48752;DHT22;34544;48.836;9.174;2024-01-30T14:56:44;12.40;99.90
48752;DHT22;34544;48.836;9.174;2024-01-30T14:59:10;12.40;99.90
48752;DHT22;34544;48.836;9.174;2024-01-30T15:01:35;12.30;99.90
48752;DHT22;34544;48.836;9.174;2024-01-30T15:06:28;12.10;99.90
48752;DHT22;34544;48.836;9.174;2024-01-30T15:08:54;12.00;99.90
48752;DHT22;34544;48.836;9.174;2024-01-30T15:11:20;12.00;99.90
48752;DHT22;34544;48.836;9.174;2024-01-30T15:13:46;11.90;99.90
48752;DHT22;34544;48.836;9.174;2024-01-30T15:16:11;11.80;99.90
48752;DHT22;34544;48.836;9.174;2024-01-30T15:18:37;11.70;99.90
48752;DHT22;34544;48.836;9.174;2024-01-30T15:21:03;11.70;99.90
48752;DHT22;34544;48.836;9.174;2024-01-30T15:23:29;11.60;99.90
48752;DHT22;34544;48.836;9.174;2024-01-30T15:25:54;11.50;99.90
48752;DHT22;34544;48.836;9.174;2024-01-30T15:28:33;11.40;99.90
48752;DHT22;34544;48.836;9.174;2024-01-30T15:30:59;11.30;99.90
48752;DHT22;34544;48.836;9.174;2024-01-30T15:33:25;11.20;99.90
48752;DHT22;34544;48.836;9.174;2024-01-30T15:35:51;11.20;99.90
48752;DHT22;34544;48.836;9.174;2024-01-30T15:38:18;11.10;99.90
48752;DHT22;34544;48.836;9.174;2024-01-30T15:40:45;11.10;99.90
48752;DHT22;34544;48.836;9.174;2024-01-30T15:43:10;11.00;99.90
48752;DHT22;34544;48.836;9.174;2024-01-30T15:45:36;10.90;99.90
48752;DHT22;34544;48.836;9.174;2024-01-30T15:48:03;10.90;99.90
48752;DHT22;34544;48.836;9.174;2024-01-30T15:50:29;10.80;99.90
48752;DHT22;34544;48.836;9.174;2024-01-30T15:52:55;10.70;99.90
48752;DHT22;34544;48.836;9.174;2024-01-30T15:55:21;10.70;99.90
48752;DHT22;34544;48.836;9.174;2024-01-30T15:57:46;10.60;99.90
48752;DHT22;34544;48.836;9.174;2024-01-30T16:00:12;10.40;99.90
48752;DHT22;34544;48.836;9.174;2024-01-30T16:02:38;10.40;99.90
48752;DHT22;34544;48.836;9.174;2024-01-30T16:05:04;10.20;99.90
48752;DHT22;34544;48.836;9.174;2024-01-30T16:07:30;10.20;99.90
48752;DHT22;34544;48.836;9.174;2024-01-30T16:09:58;10.10;99.90
48752;DHT22;34544;48.836;9.174;2024-01-30T16:12:24;10.00;99.90
48752;DHT22;34544;48.836;9.174;2024-01-30T16:14:49;9.90;99.90
48752;DHT22;34544;48.836;9.174;2024-01-30T16:17:15;9.80;99.90
48752;DHT22;34544;48.836;9.174;2024-01-30T16:19:41;9.80;99.90